createdAt,value
2023-04-27T00:03:27.176Z,6.00
2023-04-27T00:09:35.949Z,5.80
2023-04-27T00:15:44.259Z,5.80
2023-04-27T00:21:52.966Z,5.70
2023-04-27T00:28:02.065Z,5.80
2023-04-27T00:34:10.038Z,5.50
2023-04-27T00:40:18.970Z,5.50
2023-04-27T00:46:28.081Z,5.30
2023-04-27T00:52:38.088Z,5.40
2023-04-27T00:58:46.989Z,5.60
2023-04-27T01:04:57.293Z,5.30
2023-04-27T01:11:05.924Z,5.20
2023-04-27T01:17:14.936Z,5.10
2023-04-27T01:23:22.975Z,5.10
2023-04-27T01:29:31.028Z,5.30
2023-04-27T01:35:39.105Z,5.10
2023-04-27T01:41:47.931Z,5.00
2023-04-27T01:48:00.009Z,5.20
2023-04-27T01:54:08.959Z,5.20
2023-04-27T02:00:17.905Z,5.00
2023-04-27T02:06:25.956Z,5.00
2023-04-27T02:12:33.934Z,4.70
2023-04-27T02:18:42.986Z,4.70
2023-04-27T02:24:50.956Z,4.80
2023-04-27T02:30:59.065Z,4.60
2023-04-27T02:37:07.954Z,4.60
2023-04-27T02:43:16.105Z,4.50
2023-04-27T02:49:24.948Z,4.50
2023-04-27T02:55:33.939Z,4.40
2023-04-27T03:01:42.064Z,4.20
2023-04-27T03:07:49.949Z,4.20
2023-04-27T03:13:58.919Z,4.00
2023-04-27T03:20:06.929Z,4.10
2023-04-27T03:26:19.943Z,3.70
2023-04-27T03:32:28.955Z,3.80
2023-04-27T03:38:37.905Z,3.80
2023-04-27T03:44:45.983Z,3.60
2023-04-27T03:50:56.947Z,3.50
2023-04-27T03:57:05.012Z,3.40
2023-04-27T04:03:14.090Z,3.30
2023-04-27T04:09:23.906Z,3.20
2023-04-27T04:15:32.972Z,3.40
2023-04-27T04:21:40.900Z,3.40
2023-04-27T04:27:48.949Z,3.40
2023-04-27T04:34:03.909Z,3.50
2023-04-27T04:40:16.923Z,3.70
2023-04-27T04:46:26.229Z,3.70
2023-04-27T04:52:34.945Z,5.00
2023-04-27T04:58:42.932Z,8.20
2023-04-27T05:04:51.008Z,11.40
2023-04-27T05:10:59.924Z,13.30
2023-04-27T05:17:07.972Z,12.70
2023-04-27T05:23:15.915Z,11.80
2023-04-27T05:29:23.967Z,11.30
2023-04-27T05:35:31.896Z,11.60
2023-04-27T05:41:39.934Z,11.90
2023-04-27T05:47:49.031Z,12.80
2023-04-27T05:53:58.008Z,12.70
2023-04-27T06:00:06.933Z,13.40
2023-04-27T06:06:14.912Z,11.80
2023-04-27T06:12:29.881Z,10.50
2023-04-27T06:18:38.626Z,9.10
2023-04-27T06:24:46.966Z,8.80
2023-04-27T06:30:55.001Z,9.50
2023-04-27T06:37:02.921Z,9.80
2023-04-27T06:43:11.441Z,9.70
2023-04-27T06:49:19.980Z,9.20
2023-04-27T06:55:28.074Z,9.00
2023-04-27T07:01:36.012Z,8.50
2023-04-27T07:07:43.952Z,8.80
2023-04-27T07:13:53.014Z,8.40
2023-04-27T07:20:00.902Z,8.80
2023-04-27T07:26:08.968Z,8.70
2023-04-27T07:32:18.111Z,8.80
2023-04-27T07:38:26.924Z,8.10
2023-04-27T07:44:35.900Z,8.00
2023-04-27T07:50:43.965Z,8.30
2023-04-27T07:56:51.993Z,8.50
2023-04-27T08:03:01.215Z,8.90
2023-04-27T08:09:11.379Z,9.30
2023-04-27T08:15:19.957Z,9.00
2023-04-27T08:21:27.920Z,9.40
2023-04-27T08:27:35.943Z,9.60
2023-04-27T08:33:50.957Z,9.30
2023-04-27T08:39:58.932Z,9.60
2023-04-27T08:46:07.058Z,10.00
2023-04-27T08:52:22.924Z,9.90
2023-04-27T08:58:43.934Z,10.30
2023-04-27T09:04:52.977Z,10.70
2023-04-27T09:11:07.931Z,10.80
2023-04-27T09:17:16.979Z,10.50
2023-04-27T09:23:36.963Z,10.60
2023-04-27T09:29:45.953Z,11.20
2023-04-27T09:35:54.956Z,11.60
2023-04-27T09:42:03.927Z,11.60
2023-04-27T09:48:15.938Z,12.10
2023-04-27T09:54:24.977Z,12.60
2023-04-27T10:00:39.965Z,11.70
2023-04-27T10:07:08.960Z,11.70
2023-04-27T10:13:28.986Z,10.60
2023-04-27T10:19:36.963Z,10.90
2023-04-27T10:25:46.950Z,11.50
2023-04-27T10:31:55.959Z,11.10
2023-04-27T10:38:14.963Z,10.90
2023-04-27T10:44:24.945Z,10.50
2023-04-27T10:50:33.934Z,10.60
2023-04-27T10:56:41.948Z,10.10
2023-04-27T11:02:50.080Z,11.20
2023-04-27T11:08:58.987Z,11.80
2023-04-27T11:15:06.925Z,11.70
2023-04-27T11:21:17.945Z,12.70
2023-04-27T11:27:29.002Z,12.80
2023-04-27T11:33:44.364Z,13.20
2023-04-27T11:39:52.918Z,13.50
2023-04-27T11:46:02.975Z,13.00
2023-04-27T11:52:11.906Z,13.50
2023-04-27T11:58:21.965Z,13.20
2023-04-27T12:04:30.096Z,12.90
2023-04-27T12:10:38.951Z,13.30
2023-04-27T12:16:47.995Z,13.70
2023-04-27T12:22:57.006Z,14.00
2023-04-27T12:29:05.017Z,14.20
2023-04-27T12:35:20.963Z,14.00
2023-04-27T12:41:30.045Z,14.00
2023-04-27T12:47:58.308Z,14.90
2023-04-27T12:54:13.225Z,14.30
2023-04-27T13:00:21.979Z,14.40
2023-04-27T13:06:32.151Z,14.50
2023-04-27T13:12:41.000Z,14.20
2023-04-27T13:18:55.954Z,12.90
2023-04-27T13:25:20.958Z,12.60
2023-04-27T13:31:35.981Z,13.10
2023-04-27T13:37:45.049Z,13.40
2023-04-27T13:43:53.022Z,13.60
2023-04-27T13:50:00.945Z,13.10
2023-04-27T13:56:08.996Z,12.90
2023-04-27T14:02:16.973Z,12.90
2023-04-27T14:08:25.960Z,13.20
2023-04-27T14:14:33.951Z,13.90
2023-04-27T14:20:44.046Z,14.00
2023-04-27T14:26:53.949Z,15.00
2023-04-27T14:33:02.029Z,15.10
2023-04-27T14:39:13.062Z,15.10
2023-04-27T14:45:24.390Z,15.00
2023-04-27T14:51:32.926Z,14.60
2023-04-27T14:57:41.964Z,14.80
2023-04-27T15:03:50.153Z,14.90
2023-04-27T15:09:59.018Z,14.70
2023-04-27T15:16:08.073Z,13.50
2023-04-27T15:22:15.959Z,12.90
2023-04-27T15:28:24.966Z,13.40
2023-04-27T15:34:39.940Z,12.70
2023-04-27T15:40:47.977Z,12.80
2023-04-27T15:46:56.146Z,13.10
2023-04-27T15:53:04.972Z,13.50
2023-04-27T15:59:15.187Z,13.80
2023-04-27T16:05:23.998Z,13.00
2023-04-27T16:11:31.976Z,13.10
2023-04-27T16:17:48.975Z,13.50
2023-04-27T16:23:57.973Z,13.30
2023-04-27T16:30:05.957Z,13.50
2023-04-27T16:36:20.942Z,13.40
2023-04-27T16:42:29.034Z,12.90
2023-04-27T16:48:36.987Z,12.80
2023-04-27T16:54:45.230Z,12.30
2023-04-27T17:00:54.108Z,11.70
2023-04-27T17:07:01.945Z,11.40
2023-04-27T17:13:11.999Z,11.40
2023-04-27T17:19:20.980Z,11.30
2023-04-27T17:25:28.992Z,11.30
2023-04-27T17:31:37.120Z,11.20
2023-04-27T17:37:45.990Z,11.10
2023-04-27T17:43:54.992Z,11.00
2023-04-27T17:50:03.077Z,10.90
2023-04-27T17:56:12.087Z,10.80
2023-04-27T18:02:20.034Z,10.60
2023-04-27T18:08:28.015Z,10.60
2023-04-27T18:14:35.961Z,10.60
2023-04-27T18:20:43.955Z,10.40
2023-04-27T18:26:51.977Z,10.30
2023-04-27T18:33:06.992Z,10.20
2023-04-27T18:39:15.455Z,10.10
2023-04-27T18:45:24.013Z,10.00
2023-04-27T18:51:39.028Z,9.90
2023-04-27T18:57:48.134Z,9.80
2023-04-27T19:03:57.071Z,9.70
2023-04-27T19:10:05.956Z,9.50
2023-04-27T19:16:14.974Z,9.40
2023-04-27T19:22:22.943Z,9.40
2023-04-27T19:28:30.954Z,9.30
2023-04-27T19:34:45.965Z,9.20
2023-04-27T19:40:54.935Z,9.10
2023-04-27T19:47:03.107Z,9.10
2023-04-27T19:53:10.963Z,9.00
2023-04-27T19:59:19.954Z,8.90
2023-04-27T20:05:29.124Z,8.90
2023-04-27T20:11:38.011Z,8.70
2023-04-27T20:17:46.014Z,8.60
2023-04-27T20:23:54.985Z,8.50
2023-04-27T20:30:02.981Z,8.50
2023-04-27T20:36:18.413Z,8.50
2023-04-27T20:42:27.091Z,8.50
2023-04-27T20:48:36.060Z,8.50
2023-04-27T20:54:45.023Z,8.40
2023-04-27T21:00:53.081Z,8.40
2023-04-27T21:07:01.315Z,8.40
2023-04-27T21:13:11.048Z,8.40
2023-04-27T21:19:22.020Z,8.30
2023-04-27T21:25:31.236Z,8.30
2023-04-27T21:31:47.005Z,8.30
2023-04-27T21:37:54.993Z,8.30
2023-04-27T21:44:03.076Z,8.30
2023-04-27T21:50:12.058Z,8.20
2023-04-27T21:56:20.009Z,8.30
2023-04-27T22:02:29.095Z,8.40
2023-04-27T22:08:38.021Z,8.40
2023-04-27T22:14:46.272Z,8.40
2023-04-27T22:20:56.003Z,8.40
2023-04-27T22:27:04.050Z,8.50
2023-04-27T22:33:18.958Z,8.50
2023-04-27T22:39:26.985Z,8.30
2023-04-27T22:45:36.150Z,8.30
2023-04-27T22:51:46.183Z,8.30
2023-04-27T22:57:56.949Z,8.30
2023-04-27T23:04:05.106Z,8.20
2023-04-27T23:10:14.010Z,8.10
2023-04-27T23:16:23.010Z,8.00
2023-04-27T23:22:31.984Z,8.00
2023-04-27T23:28:39.977Z,7.90
2023-04-27T23:34:54.959Z,7.80
2023-04-27T23:41:02.972Z,8.00
2023-04-27T23:47:12.013Z,8.10
2023-04-27T23:53:20.001Z,8.00
2023-04-27T23:59:27.988Z,8.00
